Time;durP1;ratioP1;P1;durP2;ratioP2;P2;SDS_P1;SDS_P2;PMS_P1;PMS_P2;Temp;Humidity;BMP_temperature;BMP_pressure;BME280_temperature;BME280_humidity;BME280_pressure;Samples;Min_cycle;Max_cycle;Signal;HPM_P1;HPM_P2
2021/06/29 00:01:58;;;;;;;6.80;3.30;;;;;;;15.78;67.82;101293.28;4999695;28;20522;-41
2021/06/29 00:04:28;;;;;;;8.57;4.03;;;;;;;15.83;67.51;101287.44;5003506;28;20081;-41
2021/06/29 00:06:54;;;;;;;7.18;3.72;;;;;;;15.78;67.66;101287.69;4997141;28;20129;-41
2021/06/29 00:09:21;;;;;;;9.38;3.78;;;;;;;15.67;68.03;101295.84;4998405;28;20056;-43
2021/06/29 00:11:48;;;;;;;10.65;3.67;;;;;;;15.63;68.02;101296.97;5004340;28;20419;-41
2021/06/29 00:14:17;;;;;;;8.23;3.83;;;;;;;15.63;68.10;101308.13;5006043;28;20080;-41
2021/06/29 00:16:44;;;;;;;10.85;3.53;;;;;;;15.65;68.14;101297.41;5010633;28;20103;-41
2021/06/29 00:19:11;;;;;;;10.55;3.47;;;;;;;15.63;68.09;101297.78;4992690;28;20373;-43
2021/06/29 00:21:38;;;;;;;6.10;3.45;;;;;;;15.62;68.16;101298.16;4993449;28;20496;-42
2021/06/29 00:24:05;;;;;;;8.30;4.15;;;;;;;15.61;68.19;101282.56;5004555;28;20050;-44
2021/06/29 00:26:32;;;;;;;6.13;4.13;;;;;;;15.61;68.18;101288.97;5001027;28;20064;-42
2021/06/29 00:28:59;;;;;;;6.63;3.40;;;;;;;15.68;67.94;101293.88;4993318;28;20057;-41
2021/06/29 00:31:25;;;;;;;7.20;3.67;;;;;;;15.71;67.81;101298.72;5008789;28;20483;-42
2021/06/29 00:33:52;;;;;;;7.72;4.43;;;;;;;15.70;67.96;101297.13;4996677;28;20100;-41
2021/06/29 00:36:22;;;;;;;9.63;4.75;;;;;;;15.63;68.15;101296.97;5003181;28;20053;-41
2021/06/29 00:38:49;;;;;;;7.95;4.28;;;;;;;15.51;68.64;101288.72;5002402;28;20054;-41
2021/06/29 00:41:18;;;;;;;7.38;4.07;;;;;;;15.47;68.49;101290.63;4997549;28;20045;-43
2021/06/29 00:43:47;;;;;;;8.35;5.28;;;;;;;15.45;68.51;101284.56;5001389;28;20108;-41
2021/06/29 00:46:15;;;;;;;16.15;7.70;;;;;;;15.36;68.52;101290.34;4994211;28;20046;-41
2021/06/29 00:48:43;;;;;;;12.13;5.82;;;;;;;15.25;68.49;101292.91;4998865;28;20140;-42
2021/06/29 00:51:17;;;;;;;10.73;6.05;;;;;;;15.21;68.64;101294.81;5000970;28;20074;-41
2021/06/29 00:53:45;;;;;;;10.38;6.07;;;;;;;15.24;68.29;101296.06;5002160;28;20042;-42
2021/06/29 00:56:15;;;;;;;12.23;6.93;;;;;;;15.18;67.92;101287.16;4998253;28;20476;-41
2021/06/29 00:58:48;;;;;;;12.10;5.78;;;;;;;15.08;68.36;101284.94;4999005;28;20057;-44
2021/06/29 01:01:15;;;;;;;14.35;6.68;;;;;;;15.13;68.26;101295.00;5001317;28;20054;-48
2021/06/29 01:03:42;;;;;;;15.07;7.30;;;;;;;15.04;68.19;101286.81;4998081;28;20488;-42
2021/06/29 01:06:14;;;;;;;9.45;6.47;;;;;;;15.06;68.01;101292.84;4995073;28;20061;-41
2021/06/29 01:08:43;;;;;;;15.65;7.70;;;;;;;15.10;67.92;101290.97;4990982;28;20133;-41
2021/06/29 01:11:10;;;;;;;11.90;7.90;;;;;;;15.11;68.08;101287.00;4997880;28;20451;-41
2021/06/29 01:13:43;;;;;;;12.07;7.78;;;;;;;15.14;67.75;101277.88;4996713;28;20141;-41
2021/06/29 01:16:10;;;;;;;14.95;8.18;;;;;;;15.15;67.96;101279.53;4991477;28;20044;-41
2021/06/29 01:18:42;;;;;;;14.27;7.40;;;;;;;15.20;67.87;101272.84;5007738;28;20037;-41
2021/06/29 01:21:18;;;;;;;12.15;7.90;;;;;;;15.23;67.57;101284.09;4991093;28;20042;-40
2021/06/29 01:23:55;;;;;;;10.68;6.50;;;;;;;15.29;67.46;101279.03;5010704;28;20045;-43
2021/06/29 01:26:29;;;;;;;17.63;7.72;;;;;;;15.34;67.04;101280.72;4997536;28;20054;-43
2021/06/29 01:29:06;;;;;;;15.10;6.88;;;;;;;15.34;66.78;101280.72;4997341;28;20093;-44
2021/06/29 01:31:34;;;;;;;17.48;8.35;;;;;;;15.25;66.92;101276.16;4999466;28;20074;-42
2021/06/29 01:34:02;;;;;;;14.88;7.78;;;;;;;15.22;67.13;101290.03;4999570;28;20042;-41
2021/06/29 01:36:34;;;;;;;20.05;8.05;;;;;;;15.13;67.17;101279.06;5000833;28;20149;-41
2021/06/29 01:39:05;;;;;;;24.30;8.95;;;;;;;15.07;67.35;101272.16;5003062;28;20042;-41
2021/06/29 01:41:32;;;;;;;11.27;6.80;;;;;;;15.05;67.62;101277.28;5014204;28;20038;-41
2021/06/29 01:44:10;;;;;;;14.68;7.45;;;;;;;15.06;67.35;101281.69;4999418;28;20050;-43
2021/06/29 01:46:39;;;;;;;12.45;6.57;;;;;;;15.09;67.20;101272.59;5008786;28;20059;-42
2021/06/29 01:49:06;;;;;;;14.73;7.40;;;;;;;15.12;67.21;101271.88;4998624;28;20049;-42
2021/06/29 01:51:33;;;;;;;11.13;6.95;;;;;;;15.15;66.97;101264.75;5005248;28;20070;-43
2021/06/29 01:54:00;;;;;;;12.38;8.25;;;;;;;15.12;66.86;101262.69;5003759;28;20061;-41
2021/06/29 01:56:29;;;;;;;14.65;6.97;;;;;;;15.07;67.11;101263.78;5010872;28;20451;-42
2021/06/29 01:59:02;;;;;;;11.65;7.05;;;;;;;15.04;66.94;101267.31;4994104;28;20130;-41
2021/06/29 02:01:29;;;;;;;12.77;7.20;;;;;;;14.98;67.03;101271.56;5005118;28;20775;-41
2021/06/29 02:03:56;;;;;;;12.82;7.90;;;;;;;14.95;67.04;101274.25;5002475;28;20046;-41
2021/06/29 02:06:22;;;;;;;15.57;7.80;;;;;;;14.87;66.83;101278.84;5001286;28;20054;-41
2021/06/29 02:08:49;;;;;;;14.48;8.38;;;;;;;14.78;67.14;101278.22;4993742;28;20177;-42
2021/06/29 02:11:17;;;;;;;13.75;7.32;;;;;;;14.73;67.29;101275.72;4999509;28;20126;-41
2021/06/29 02:13:47;;;;;;;15.50;8.00;;;;;;;14.70;67.45;101282.00;4999383;28;20065;-43
2021/06/29 02:16:14;;;;;;;13.65;7.50;;;;;;;14.64;67.60;101275.88;5012103;28;20046;-41
2021/06/29 02:18:41;;;;;;;27.40;9.52;;;;;;;14.60;67.63;101276.97;4984914;28;20455;-41
2021/06/29 02:21:08;;;;;;;17.40;8.25;;;;;;;14.55;67.72;101280.03;5012630;28;20045;-41
2021/06/29 02:23:35;;;;;;;14.48;7.25;;;;;;;14.48;67.92;101280.63;5014913;28;20056;-41
2021/06/29 02:26:01;;;;;;;13.25;8.07;;;;;;;14.45;68.07;101286.94;4997962;28;20139;-41
2021/06/29 02:28:31;;;;;;;12.68;7.80;;;;;;;14.48;67.89;101291.00;4998246;28;20443;-41
2021/06/29 02:30:59;;;;;;;12.25;8.07;;;;;;;14.41;67.70;101290.78;4995280;28;20456;-41
2021/06/29 02:33:25;;;;;;;14.20;7.45;;;;;;;14.37;67.85;101290.72;5002281;28;20049;-42
2021/06/29 02:35:52;;;;;;;12.65;8.07;;;;;;;14.37;67.72;101296.28;5009560;28;20052;-41
2021/06/29 02:38:19;;;;;;;13.02;8.25;;;;;;;14.31;68.08;101294.06;4995574;28;20121;-44
2021/06/29 02:40:46;;;;;;;15.18;7.65;;;;;;;14.25;68.08;101282.38;4996653;28;20046;-41
2021/06/29 02:43:15;;;;;;;12.15;7.03;;;;;;;14.23;68.11;101284.72;5006692;28;20124;-41
2021/06/29 02:45:43;;;;;;;12.82;7.63;;;;;;;14.17;68.30;101288.09;5010239;28;20100;-42
2021/06/29 02:48:13;;;;;;;15.38;7.22;;;;;;;14.17;68.22;101288.09;5006437;28;20101;-42
2021/06/29 02:50:40;;;;;;;14.85;8.32;;;;;;;14.09;68.52;101289.88;5000253;28;20039;-41
2021/06/29 02:53:07;;;;;;;12.57;7.10;;;;;;;14.04;68.40;101287.38;5010159;28;20050;-41
2021/06/29 02:55:34;;;;;;;12.02;7.70;;;;;;;14.03;68.48;101294.13;5009101;28;20180;-41
2021/06/29 02:58:00;;;;;;;14.32;7.65;;;;;;;13.95;68.73;101281.94;5001225;28;20144;-41
2021/06/29 03:00:27;;;;;;;10.27;6.95;;;;;;;13.97;68.81;101282.44;5003563;28;20046;-41
2021/06/29 03:02:54;;;;;;;10.70;7.22;;;;;;;14.03;68.67;101297.69;4997841;28;20042;-46
2021/06/29 03:05:20;;;;;;;15.77;8.70;;;;;;;14.07;68.43;101288.63;4997772;28;20056;-41
2021/06/29 03:07:47;;;;;;;20.63;8.85;;;;;;;14.06;68.67;101284.25;5012861;28;20037;-41
2021/06/29 03:10:14;;;;;;;16.85;8.95;;;;;;;14.13;68.36;101290.00;4993388;28;20054;-43
2021/06/29 03:12:41;;;;;;;11.75;7.63;;;;;;;14.06;68.44;101289.81;5006076;28;20046;-41
2021/06/29 03:15:09;;;;;;;14.15;8.52;;;;;;;14.00;68.72;101287.25;5000055;28;20049;-41
2021/06/29 03:17:36;;;;;;;14.57;8.30;;;;;;;13.95;69.00;101281.16;4981265;28;20065;-41
2021/06/29 03:20:09;;;;;;;15.23;8.70;;;;;;;13.94;69.06;101283.13;5011496;28;20128;-42
2021/06/29 03:22:39;;;;;;;12.82;6.93;;;;;;;13.98;68.94;101283.22;5014919;28;20046;-43
2021/06/29 03:25:08;;;;;;;17.98;8.23;;;;;;;14.00;68.77;101286.47;5003358;28;20144;-41
2021/06/29 03:27:36;;;;;;;10.68;7.50;;;;;;;14.00;68.77;101284.47;5008142;28;20042;-41
2021/06/29 03:30:08;;;;;;;13.45;7.32;;;;;;;14.06;68.91;101282.25;5003924;28;20038;-41
2021/06/29 03:32:35;;;;;;;12.88;9.00;;;;;;;14.06;68.74;101285.03;5008591;28;20543;-41
2021/06/29 03:35:07;;;;;;;13.73;8.45;;;;;;;14.09;68.99;101289.06;5001668;28;20046;-40
2021/06/29 03:37:36;;;;;;;11.65;8.48;;;;;;;14.10;69.19;101282.34;4997743;28;20066;-42
2021/06/29 03:40:04;;;;;;;15.38;8.13;;;;;;;14.13;68.87;101288.03;5010176;28;20054;-41
2021/06/29 03:42:31;;;;;;;13.00;8.00;;;;;;;14.14;68.88;101274.91;4990379;28;20062;-41
2021/06/29 03:45:00;;;;;;;11.75;7.47;;;;;;;14.17;69.00;101279.75;4998753;28;20053;-41
2021/06/29 03:47:27;;;;;;;12.68;7.00;;;;;;;14.17;68.82;101282.53;4972449;28;20046;-42
2021/06/29 03:49:54;;;;;;;15.27;8.02;;;;;;;14.16;68.86;101284.53;5001474;28;20051;-44
2021/06/29 03:52:21;;;;;;;13.27;7.65;;;;;;;14.12;69.17;101282.81;5012229;28;20049;-41
2021/06/29 03:54:48;;;;;;;11.10;8.18;;;;;;;14.13;68.95;101285.25;5011132;28;20056;-43
2021/06/29 03:57:15;;;;;;;16.70;8.70;;;;;;;14.08;69.09;101279.13;5007142;28;20498;-42
2021/06/29 03:59:41;;;;;;;16.45;8.43;;;;;;;14.12;69.04;101280.00;5001411;28;20103;-41
2021/06/29 04:02:09;;;;;;;13.48;8.50;;;;;;;14.06;69.13;101278.69;4999847;28;20529;-41
2021/06/29 04:04:35;;;;;;;11.63;8.60;;;;;;;14.01;68.99;101282.50;5005313;28;20212;-43
2021/06/29 04:07:04;;;;;;;12.52;8.38;;;;;;;13.97;69.16;101274.06;4990748;28;20056;-41
2021/06/29 04:09:31;;;;;;;20.85;10.25;;;;;;;13.95;69.06;101281.94;5004325;28;20447;-41
2021/06/29 04:11:58;;;;;;;19.77;9.77;;;;;;;13.92;69.19;101271.56;5004606;28;20160;-41
2021/06/29 04:14:25;;;;;;;15.63;8.73;;;;;;;13.87;69.00;101280.13;5011476;28;20045;-45
2021/06/29 04:16:52;;;;;;;12.25;7.88;;;;;;;13.81;69.14;101273.22;5003728;28;20047;-42
2021/06/29 04:19:22;;;;;;;17.45;7.53;;;;;;;13.73;69.47;101276.97;4987131;28;20043;-41
2021/06/29 04:21:51;;;;;;;13.75;8.15;;;;;;;13.63;69.40;101269.13;5003546;28;20081;-41
2021/06/29 04:24:18;;;;;;;16.83;8.30;;;;;;;13.61;69.73;101268.63;5006369;28;20042;-42
2021/06/29 04:26:46;;;;;;;19.70;8.77;;;;;;;13.55;69.78;101267.28;5001489;28;20141;-44
2021/06/29 04:29:12;;;;;;;17.20;8.23;;;;;;;13.54;69.77;101270.41;4991622;28;20499;-41
2021/06/29 04:31:40;;;;;;;15.32;7.80;;;;;;;13.54;69.75;101262.88;5008892;28;20672;-41
2021/06/29 04:34:07;;;;;;;13.02;7.07;;;;;;;13.49;70.02;101262.31;5008753;28;20057;-44
2021/06/29 04:36:36;;;;;;;18.08;7.95;;;;;;;13.46;69.94;101266.59;5003583;28;20043;-41
2021/06/29 04:39:05;;;;;;;16.35;7.45;;;;;;;13.46;69.74;101266.59;5007467;28;20057;-41
2021/06/29 04:41:33;;;;;;;17.90;7.75;;;;;;;13.48;69.87;101269.00;5008589;28;20046;-41
2021/06/29 04:44:06;;;;;;;15.95;7.68;;;;;;;13.44;70.00;101274.50;4991016;28;20518;-45
2021/06/29 04:46:36;;;;;;;14.05;7.53;;;;;;;13.47;69.76;101272.97;5010122;28;20049;-41
2021/06/29 04:49:03;;;;;;;15.63;7.10;;;;;;;13.45;69.76;101278.09;4998296;28;20109;-41
2021/06/29 04:51:29;;;;;;;15.82;7.93;;;;;;;13.40;70.04;101285.50;5003183;28;20069;-42
2021/06/29 04:53:56;;;;;;;14.82;8.80;;;;;;;13.42;69.95;101276.81;4999741;28;20120;-47
2021/06/29 04:56:23;;;;;;;13.48;6.93;;;;;;;13.43;69.87;101284.00;4992945;28;20141;-43
2021/06/29 04:58:57;;;;;;;16.50;7.85;;;;;;;13.36;70.03;101272.66;4989817;28;20140;-44
2021/06/29 05:01:24;;;;;;;15.70;7.55;;;;;;;13.37;70.03;101275.06;4999170;28;20097;-41
2021/06/29 05:03:53;;;;;;;10.13;6.30;;;;;;;13.42;70.03;101274.03;5011261;28;20539;-41
2021/06/29 05:06:19;;;;;;;11.63;7.18;;;;;;;13.37;70.22;101274.25;4996536;28;20054;-41
2021/06/29 05:08:46;;;;;;;13.95;7.68;;;;;;;13.38;70.27;101270.31;5024359;28;20046;-41
2021/06/29 05:11:14;;;;;;;18.13;7.60;;;;;;;13.42;70.30;101265.69;5004002;28;20148;-46
2021/06/29 05:13:41;;;;;;;14.50;7.25;;;;;;;13.49;70.08;101268.69;5000419;28;20050;-42
2021/06/29 05:16:07;;;;;;;14.15;6.97;;;;;;;13.52;70.01;101265.19;4996703;28;20046;-45
2021/06/29 05:18:34;;;;;;;18.73;8.13;;;;;;;13.55;70.17;101272.03;5007960;28;20503;-41
2021/06/29 05:21:02;;;;;;;17.98;8.80;;;;;;;13.52;70.10;101267.97;5006775;28;20406;-44
2021/06/29 05:23:32;;;;;;;19.45;8.45;;;;;;;13.50;70.31;101273.09;5008320;28;20055;-41
2021/06/29 05:26:00;;;;;;;14.40;7.45;;;;;;;13.55;70.17;101272.84;5000637;28;20072;-40
2021/06/29 05:28:27;;;;;;;18.73;8.55;;;;;;;13.56;70.30;101276.41;4999513;28;20101;-41
2021/06/29 05:30:55;;;;;;;15.65;8.15;;;;;;;13.52;70.53;101269.94;4997906;28;20092;-43
2021/06/29 05:33:22;;;;;;;13.77;7.45;;;;;;;13.56;70.16;101271.66;5009212;28;20042;-42
2021/06/29 05:35:49;;;;;;;15.77;6.97;;;;;;;13.59;70.62;101267.38;5012559;28;20056;-41
2021/06/29 05:38:15;;;;;;;12.35;7.03;;;;;;;13.63;70.42;101266.34;5008738;28;20454;-43
2021/06/29 05:40:42;;;;;;;10.25;6.45;;;;;;;13.68;70.44;101276.38;5001142;28;20056;-43
2021/06/29 05:43:09;;;;;;;18.02;7.00;;;;;;;13.72;70.39;101280.88;5004960;28;20042;-42
2021/06/29 05:45:36;;;;;;;20.10;7.60;;;;;;;13.71;70.53;101279.28;5005527;28;20575;-41
2021/06/29 05:48:04;;;;;;;16.88;6.63;;;;;;;13.73;70.40;101273.34;5008592;28;20069;-41
2021/06/29 05:50:31;;;;;;;17.52;6.85;;;;;;;13.78;70.38;101271.13;5010915;28;20141;-45
2021/06/29 05:52:58;;;;;;;16.30;7.85;;;;;;;13.83;70.26;101270.06;5003958;28;20502;-41
2021/06/29 05:55:25;;;;;;;24.13;7.60;;;;;;;13.85;70.30;101273.28;5013598;28;20050;-42
2021/06/29 05:58:13;;;;;;;17.17;6.85;;;;;;;13.86;70.26;101270.19;4994134;28;20034;-42
2021/06/29 06:00:40;;;;;;;15.23;8.18;;;;;;;13.92;70.34;101279.91;4999034;28;20490;-42
2021/06/29 06:03:06;;;;;;;13.35;7.15;;;;;;;13.91;70.28;101283.84;5006462;28;20049;-41
2021/06/29 06:05:33;;;;;;;12.07;7.38;;;;;;;13.91;70.26;101277.44;5006782;28;20120;-41
2021/06/29 06:08:00;;;;;;;14.63;8.30;;;;;;;14.00;70.06;101281.69;5004100;28;20038;-41
2021/06/29 06:10:27;;;;;;;13.00;7.60;;;;;;;14.08;70.10;101276.34;4998424;28;20673;-41
2021/06/29 06:12:54;;;;;;;14.80;6.60;;;;;;;14.06;70.29;101279.47;5005185;28;20403;-41
2021/06/29 06:15:23;;;;;;;17.08;7.10;;;;;;;14.11;70.14;101281.19;5010009;28;20403;-41
2021/06/29 06:17:53;;;;;;;18.73;7.90;;;;;;;14.17;69.88;101286.13;5014274;28;20057;-41
2021/06/29 06:20:20;;;;;;;13.40;6.45;;;;;;;14.17;70.06;101290.88;5001784;28;20088;-43
2021/06/29 06:22:49;;;;;;;15.80;7.32;;;;;;;14.13;70.41;101290.00;5007558;28;20054;-43
2021/06/29 06:25:16;;;;;;;11.43;6.60;;;;;;;14.11;70.17;101287.56;5003248;28;20499;-43
2021/06/29 06:27:44;;;;;;;15.32;7.05;;;;;;;14.08;70.38;101298.63;5008559;28;20578;-40
2021/06/29 06:30:12;;;;;;;15.57;7.43;;;;;;;14.12;70.58;101299.50;5003694;28;20463;-41
2021/06/29 06:32:39;;;;;;;16.02;7.70;;;;;;;14.15;70.40;101304.38;5019193;28;20058;-41
2021/06/29 06:35:10;;;;;;;15.13;7.60;;;;;;;14.17;70.30;101307.59;5011854;28;20056;-44
2021/06/29 06:37:37;;;;;;;14.68;7.80;;;;;;;14.23;70.48;101306.19;4997946;28;20117;-42
2021/06/29 06:40:06;;;;;;;18.17;7.72;;;;;;;14.31;70.51;101305.22;4998870;28;20463;-41
2021/06/29 06:42:36;;;;;;;17.13;6.70;;;;;;;14.32;70.22;101304.88;4999168;28;20517;-42
2021/06/29 06:45:05;;;;;;;20.70;7.25;;;;;;;14.30;70.35;101307.19;5002295;28;20656;-43
2021/06/29 06:47:32;;;;;;;15.98;7.57;;;;;;;14.32;70.32;101318.81;5005055;28;20056;-42
2021/06/29 06:49:59;;;;;;;13.25;7.65;;;;;;;14.36;70.28;101322.50;5003097;28;20041;-42
2021/06/29 06:52:28;;;;;;;17.67;6.70;;;;;;;14.38;70.28;101313.78;4998688;28;20052;-42
2021/06/29 06:54:55;;;;;;;13.93;6.47;;;;;;;14.49;70.46;101314.88;4993184;28;20515;-42
2021/06/29 06:57:22;;;;;;;12.10;6.53;;;;;;;14.62;70.28;101310.84;5003809;28;20077;-42
2021/06/29 06:59:49;;;;;;;14.82;6.45;;;;;;;14.69;70.11;101315.81;4994086;28;20071;-42
2021/06/29 07:02:16;;;;;;;18.55;6.70;;;;;;;14.81;70.11;101310.13;5016308;28;20091;-41
2021/06/29 07:04:45;;;;;;;12.75;6.57;;;;;;;14.88;70.10;101325.06;5004114;28;20132;-42
2021/06/29 07:07:12;;;;;;;10.90;5.70;;;;;;;14.94;70.04;101320.84;5002087;28;20104;-44
2021/06/29 07:09:39;;;;;;;17.35;6.53;;;;;;;15.10;69.81;101307.69;5013313;28;20049;-43
2021/06/29 07:12:07;;;;;;;18.02;9.60;;;;;;;15.23;69.80;101311.97;5011898;28;20550;-42
2021/06/29 07:14:33;;;;;;;14.30;7.50;;;;;;;15.35;69.58;101319.44;5006870;28;20149;-41
2021/06/29 07:17:00;;;;;;;20.83;6.18;;;;;;;15.47;69.33;101332.47;5008424;28;20095;-44
2021/06/29 07:19:27;;;;;;;12.18;5.97;;;;;;;15.57;69.08;101326.31;5003305;28;20038;-41
2021/06/29 07:21:56;;;;;;;17.08;6.90;;;;;;;15.64;68.97;101326.50;4995646;28;20403;-41
2021/06/29 07:24:23;;;;;;;16.23;7.70;;;;;;;15.79;69.30;101326.44;5008640;28;20128;-41
2021/06/29 07:26:57;;;;;;;12.45;5.22;;;;;;;15.97;69.75;101323.19;5004359;28;20060;-42
2021/06/29 07:29:26;;;;;;;11.68;5.50;;;;;;;16.14;70.23;101319.97;5004403;28;20405;-43
2021/06/29 07:31:53;;;;;;;10.13;5.97;;;;;;;16.34;70.79;101321.56;4998604;28;20129;-42
2021/06/29 07:34:26;;;;;;;12.32;5.30;;;;;;;16.60;71.09;101318.88;4994857;28;20092;-45
2021/06/29 07:36:55;;;;;;;16.88;7.93;;;;;;;16.81;70.52;101324.84;5000204;28;20050;-47
2021/06/29 07:39:22;;;;;;;14.82;5.50;;;;;;;16.99;69.28;101325.97;4994808;28;20125;-42
2021/06/29 07:41:52;;;;;;;12.32;5.93;;;;;;;17.17;68.32;101331.03;4999735;28;20491;-47
2021/06/29 07:44:20;;;;;;;11.15;5.32;;;;;;;17.36;67.52;101328.94;4995315;28;20056;-41
2021/06/29 07:46:47;;;;;;;13.80;5.78;;;;;;;17.64;67.16;101329.38;5004740;28;20085;-42
2021/06/29 07:49:13;;;;;;;16.63;6.15;;;;;;;17.94;66.48;101337.78;4994131;28;20137;-47
2021/06/29 07:51:40;;;;;;;13.20;5.35;;;;;;;18.18;65.66;101342.09;5005506;28;20132;-44
2021/06/29 07:54:07;;;;;;;12.18;5.28;;;;;;;18.46;64.34;101347.19;4978416;28;20057;-43
2021/06/29 07:56:37;;;;;;;12.00;4.90;;;;;;;18.65;63.23;101333.81;4990059;28;20133;-47
2021/06/29 07:59:04;;;;;;;10.25;4.93;;;;;;;18.92;62.31;101342.09;4991785;28;20050;-40
2021/06/29 08:01:31;;;;;;;16.90;5.35;;;;;;;18.93;61.20;101338.88;4990699;28;20073;-42
2021/06/29 08:03:58;;;;;;;13.30;5.22;;;;;;;18.97;60.74;101344.53;4995004;28;20042;-44
2021/06/29 08:06:28;;;;;;;14.35;5.60;;;;;;;19.00;60.33;101344.56;4989069;28;20128;-40
2021/06/29 08:08:56;;;;;;;13.77;5.60;;;;;;;19.11;59.73;101350.28;5001881;28;20112;-45
2021/06/29 08:11:26;;;;;;;10.23;4.53;;;;;;;19.33;59.26;101332.38;5002216;28;20048;-43
2021/06/29 08:13:53;;;;;;;13.55;4.88;;;;;;;19.48;58.56;101334.13;4992302;28;20132;-42
2021/06/29 08:16:21;;;;;;;9.57;5.32;;;;;;;19.54;58.41;101349.41;5006428;28;20037;-47
2021/06/29 08:18:48;;;;;;;11.98;5.00;;;;;;;19.67;58.05;101344.28;4996089;28;20077;-44
2021/06/29 08:21:17;;;;;;;13.80;4.53;;;;;;;19.99;57.80;101351.66;5004896;28;20498;-43
2021/06/29 08:23:44;;;;;;;11.98;5.60;;;;;;;19.96;57.52;101351.69;5007403;28;20137;-44
2021/06/29 08:26:11;;;;;;;13.82;4.88;;;;;;;19.95;56.74;101348.06;5003339;28;20069;-47
2021/06/29 08:28:38;;;;;;;13.30;5.22;;;;;;;20.19;56.18;101349.34;4998233;28;20053;-41
2021/06/29 08:31:08;;;;;;;10.40;4.47;;;;;;;20.35;56.25;101349.03;4992495;28;20054;-41
2021/06/29 08:33:35;;;;;;;12.90;5.13;;;;;;;20.70;55.49;101349.13;4999021;28;20120;-42
2021/06/29 08:36:03;;;;;;;11.45;4.43;;;;;;;21.01;55.25;101359.63;4996535;28;20056;-44
2021/06/29 08:38:30;;;;;;;8.85;4.78;;;;;;;20.99;54.48;101364.03;4998909;28;20133;-47
2021/06/29 08:40:57;;;;;;;12.75;4.85;;;;;;;20.64;54.26;101362.78;4992536;28;20113;-41
2021/06/29 08:43:25;;;;;;;9.60;5.10;;;;;;;20.47;54.19;101362.72;4996626;28;20077;-41
2021/06/29 08:45:55;;;;;;;10.93;5.55;;;;;;;20.40;53.35;101363.53;4998581;28;20061;-47
2021/06/29 08:48:25;;;;;;;12.02;4.63;;;;;;;20.48;53.49;101361.53;4997953;28;20049;-44
2021/06/29 08:50:55;;;;;;;10.50;4.60;;;;;;;20.53;53.66;101359.13;5002303;28;20058;-42
2021/06/29 08:53:22;;;;;;;19.77;6.22;;;;;;;20.89;53.26;101365.63;4994356;28;20140;-46
2021/06/29 08:55:52;;;;;;;11.02;5.28;;;;;;;21.28;53.46;101370.50;5004822;28;20069;-43
2021/06/29 08:58:22;;;;;;;8.43;4.28;;;;;;;21.59;52.56;101355.56;4994782;28;20408;-46
2021/06/29 09:00:52;;;;;;;9.98;3.67;;;;;;;21.76;52.42;101360.38;5002835;28;20042;-41
2021/06/29 09:03:20;;;;;;;15.07;4.30;;;;;;;21.79;51.95;101357.53;4995968;28;20133;-46
2021/06/29 09:05:49;;;;;;;9.68;4.07;;;;;;;21.61;51.69;101355.97;4977609;28;20157;-41
2021/06/29 09:08:18;;;;;;;12.88;3.90;;;;;;;21.57;51.37;101361.63;5006895;28;20054;-42
2021/06/29 09:11:19;;;;;;;9.95;3.20;;;;;;;21.80;50.24;101363.97;5000454;28;20494;-43
2021/06/29 09:14:08;;;;;;;7.25;3.72;;;;;;;22.11;49.25;101367.94;5005266;28;20105;-42
2021/06/29 09:16:36;;;;;;;15.20;4.63;;;;;;;22.31;50.27;101364.25;5014227;28;20061;-42
2021/06/29 09:19:05;;;;;;;5.82;3.42;;;;;;;22.64;49.76;101374.16;5022307;28;20053;-44
2021/06/29 09:21:36;;;;;;;10.13;3.70;;;;;;;22.97;48.88;101367.09;5016831;28;20064;-48
2021/06/29 09:24:05;;;;;;;11.02;3.70;;;;;;;22.91;48.69;101375.19;5012361;28;20050;-45
2021/06/29 09:26:39;;;;;;;10.00;3.83;;;;;;;22.83;48.24;101370.81;5007123;28;20057;-41
2021/06/29 09:29:07;;;;;;;9.02;3.72;;;;;;;22.74;48.40;101366.84;5009136;28;20096;-45
2021/06/29 09:31:36;;;;;;;10.73;3.83;;;;;;;22.52;48.23;101368.16;5019470;28;20049;-44
2021/06/29 09:34:07;;;;;;;14.30;4.50;;;;;;;22.30;48.15;101367.44;5016423;28;20052;-44
2021/06/29 09:36:39;;;;;;;10.45;3.58;;;;;;;21.99;48.37;101377.66;5019511;28;20495;-42
2021/06/29 09:39:10;;;;;;;7.65;3.58;;;;;;;21.77;48.58;101378.88;5015258;28;20057;-42
2021/06/29 09:41:37;;;;;;;11.13;3.25;;;;;;;21.60;49.04;101376.91;5015664;28;20050;-41
2021/06/29 09:44:09;;;;;;;7.25;3.88;;;;;;;21.76;49.49;101374.47;5012855;28;20056;-45
2021/06/29 09:46:38;;;;;;;10.77;3.90;;;;;;;22.01;49.39;101369.59;5019394;28;20061;-43
2021/06/29 09:49:14;;;;;;;9.38;4.50;;;;;;;22.21;49.34;101370.69;5015032;28;20052;-42
2021/06/29 09:51:50;;;;;;;8.38;5.00;;;;;;;22.29;49.33;101375.09;5022805;28;20045;-42
2021/06/29 09:54:20;;;;;;;8.88;4.38;;;;;;;22.39;48.92;101381.94;5015756;28;20042;-48
2021/06/29 09:56:51;;;;;;;5.43;3.00;;;;;;;22.58;48.63;101374.97;5014724;28;20060;-42
2021/06/29 09:59:23;;;;;;;9.95;3.55;;;;;;;22.69;47.94;101370.09;5016485;28;20046;-42
2021/06/29 10:02:07;;;;;;;6.53;3.33;;;;;;;22.54;47.82;101369.34;5005989;28;20037;-42
2021/06/29 10:04:34;;;;;;;7.70;3.13;;;;;;;22.42;47.93;101370.59;5007001;28;20057;-48
2021/06/29 10:07:18;;;;;;;6.63;3.85;;;;;;;22.35;47.60;101367.03;5014532;28;20064;-45
2021/06/29 10:10:05;;;;;;;6.22;2.78;;;;;;;22.38;47.59;101364.19;5021911;28;20064;-43
2021/06/29 10:12:32;;;;;;;8.30;3.10;;;;;;;22.75;47.27;101368.44;5021807;28;20064;-41
2021/06/29 10:14:59;;;;;;;5.20;2.67;;;;;;;22.95;46.92;101363.88;5025060;28;20065;-40
2021/06/29 10:17:26;;;;;;;7.63;3.20;;;;;;;22.87;46.80;101371.59;5024221;28;20054;-43
2021/06/29 10:20:11;;;;;;;9.68;3.03;;;;;;;22.90;46.63;101367.16;5019203;28;20038;-40
2021/06/29 10:22:44;;;;;;;10.13;4.28;;;;;;;22.94;46.79;101370.72;5020831;28;20053;-46
2021/06/29 10:25:11;;;;;;;6.93;3.00;;;;;;;23.08;46.55;101373.47;5019970;28;20077;-46
2021/06/29 10:27:39;;;;;;;6.07;3.10;;;;;;;23.38;46.33;101373.63;5015117;28;20101;-46
2021/06/29 10:30:09;;;;;;;9.38;3.15;;;;;;;23.58;46.07;101354.88;5010020;28;20056;-47
2021/06/29 10:32:36;;;;;;;6.90;3.15;;;;;;;23.73;45.82;101358.34;5015942;28;20057;-47
2021/06/29 10:35:04;;;;;;;6.07;2.97;;;;;;;23.93;45.51;101353.69;5023570;28;20049;-44
2021/06/29 10:37:31;;;;;;;5.38;2.47;;;;;;;24.06;45.39;101345.44;5024154;28;20049;-44
2021/06/29 10:39:58;;;;;;;9.30;3.15;;;;;;;24.16;45.04;101350.19;5016484;28;20046;-44
2021/06/29 10:42:25;;;;;;;7.32;3.30;;;;;;;24.09;44.98;101351.06;5015651;28;20135;-48
2021/06/29 10:44:53;;;;;;;11.27;3.72;;;;;;;24.09;44.67;101339.75;5020384;28;20046;-47
2021/06/29 10:47:20;;;;;;;5.68;2.88;;;;;;;24.00;44.78;101344.28;5016594;28;20491;-45
2021/06/29 10:49:48;;;;;;;9.05;3.08;;;;;;;24.07;44.70;101335.72;5015026;28;21423;-49
2021/06/29 10:52:37;;;;;;;8.35;4.05;;;;;;;24.26;44.59;101337.91;5008041;28;20059;-48
2021/06/29 10:55:06;;;;;;;5.50;3.30;;;;;;;24.23;45.15;101333.09;5016851;28;20046;-45
2021/06/29 10:57:46;;;;;;;6.78;3.28;;;;;;;24.18;44.29;101342.06;5020911;28;20392;-45
2021/06/29 11:00:16;;;;;;;8.40;3.78;;;;;;;23.98;44.75;101341.09;5021807;28;20057;-44
2021/06/29 11:03:05;;;;;;;8.75;4.32;;;;;;;23.78;44.29;101340.09;5014203;28;20069;-43
2021/06/29 11:05:40;;;;;;;8.13;4.38;;;;;;;23.59;45.03;101333.84;5020027;28;20130;-43
2021/06/29 11:08:15;;;;;;;7.25;3.53;;;;;;;23.69;45.58;101334.16;5013028;28;20079;-44
2021/06/29 11:10:48;;;;;;;11.13;4.88;;;;;;;23.69;45.80;101337.78;5015530;28;20061;-43
2021/06/29 11:13:39;;;;;;;6.78;3.38;;;;;;;23.62;45.88;101333.00;5023291;28;20045;-47
2021/06/29 11:16:06;;;;;;;5.63;3.03;;;;;;;23.54;46.09;101325.81;5025971;28;20532;-46
2021/06/29 11:18:33;;;;;;;8.57;3.30;;;;;;;23.54;46.24;101320.16;5028175;28;20045;-43
2021/06/29 11:21:03;;;;;;;6.63;3.28;;;;;;;23.57;46.19;101324.19;5015109;28;20390;-46
2021/06/29 11:23:35;;;;;;;5.83;3.50;;;;;;;23.38;45.54;101321.94;5023731;28;20057;-43
2021/06/29 11:26:13;;;;;;;5.28;3.28;;;;;;;23.27;45.54;101322.00;5019469;28;20056;-43
2021/06/29 11:29:08;;;;;;;7.68;2.85;;;;;;;23.31;46.63;101316.34;5017729;28;20037;-42